sensor_id;sensor_type;location;lat;lon;timestamp;P1;durP1;ratioP1;P2;durP2;ratioP2
4486;SDS011;2256;48.740;9.106;2023-03-26T00:00:03;7.15;;;1.98;;
4486;SDS011;2256;48.740;9.106;2023-03-26T00:02:34;5.35;;;2.30;;
4486;SDS011;2256;48.740;9.106;2023-03-26T00:05:04;5.53;;;1.80;;
4486;SDS011;2256;48.740;9.106;2023-03-26T00:07:32;5.05;;;2.05;;
4486;SDS011;2256;48.740;9.106;2023-03-26T00:09:59;6.05;;;3.25;;
4486;SDS011;2256;48.740;9.106;2023-03-26T00:12:25;7.20;;;1.88;;
4486;SDS011;2256;48.740;9.106;2023-03-26T00:14:52;7.20;;;1.83;;
4486;SDS011;2256;48.740;9.106;2023-03-26T00:17:19;5.45;;;1.98;;
4486;SDS011;2256;48.740;9.106;2023-03-26T00:19:48;7.38;;;2.00;;
4486;SDS011;2256;48.740;9.106;2023-03-26T00:22:14;6.47;;;1.87;;
4486;SDS011;2256;48.740;9.106;2023-03-26T00:24:41;7.20;;;1.98;;
4486;SDS011;2256;48.740;9.106;2023-03-26T00:27:10;8.43;;;2.07;;
4486;SDS011;2256;48.740;9.106;2023-03-26T00:29:36;5.38;;;2.20;;
4486;SDS011;2256;48.740;9.106;2023-03-26T00:32:04;4.45;;;1.65;;
4486;SDS011;2256;48.740;9.106;2023-03-26T00:34:31;4.63;;;1.92;;
4486;SDS011;2256;48.740;9.106;2023-03-26T00:37:00;5.15;;;1.90;;
4486;SDS011;2256;48.740;9.106;2023-03-26T00:39:27;5.63;;;2.00;;
4486;SDS011;2256;48.740;9.106;2023-03-26T00:41:57;8.70;;;2.13;;
4486;SDS011;2256;48.740;9.106;2023-03-26T00:44:30;14.60;;;2.00;;
4486;SDS011;2256;48.740;9.106;2023-03-26T00:46:58;6.97;;;1.65;;
4486;SDS011;2256;48.740;9.106;2023-03-26T00:49:24;4.97;;;1.60;;
4486;SDS011;2256;48.740;9.106;2023-03-26T00:51:51;6.28;;;1.55;;
4486;SDS011;2256;48.740;9.106;2023-03-26T00:54:19;5.97;;;1.88;;
4486;SDS011;2256;48.740;9.106;2023-03-26T00:56:46;3.78;;;1.60;;
4486;SDS011;2256;48.740;9.106;2023-03-26T00:59:13;3.97;;;1.77;;
4486;SDS011;2256;48.740;9.106;2023-03-26T01:01:41;6.55;;;1.90;;
4486;SDS011;2256;48.740;9.106;2023-03-26T01:04:19;4.68;;;2.05;;
4486;SDS011;2256;48.740;9.106;2023-03-26T01:06:54;4.63;;;1.85;;
4486;SDS011;2256;48.740;9.106;2023-03-26T01:09:25;4.82;;;2.17;;
4486;SDS011;2256;48.740;9.106;2023-03-26T01:11:57;7.53;;;1.92;;
4486;SDS011;2256;48.740;9.106;2023-03-26T01:14:24;15.65;;;1.95;;
4486;SDS011;2256;48.740;9.106;2023-03-26T01:16:53;7.05;;;2.35;;
4486;SDS011;2256;48.740;9.106;2023-03-26T01:19:23;8.10;;;1.85;;
4486;SDS011;2256;48.740;9.106;2023-03-26T01:21:54;15.95;;;1.80;;
4486;SDS011;2256;48.740;9.106;2023-03-26T01:24:24;5.90;;;1.83;;
4486;SDS011;2256;48.740;9.106;2023-03-26T01:27:07;8.23;;;1.63;;
4486;SDS011;2256;48.740;9.106;2023-03-26T01:29:42;9.63;;;2.13;;
4486;SDS011;2256;48.740;9.106;2023-03-26T01:32:17;4.97;;;1.80;;
4486;SDS011;2256;48.740;9.106;2023-03-26T01:35:02;9.25;;;2.10;;
4486;SDS011;2256;48.740;9.106;2023-03-26T01:37:40;5.22;;;2.10;;
4486;SDS011;2256;48.740;9.106;2023-03-26T01:40:19;4.97;;;1.90;;
4486;SDS011;2256;48.740;9.106;2023-03-26T01:42:53;9.20;;;2.00;;
4486;SDS011;2256;48.740;9.106;2023-03-26T01:45:26;6.18;;;2.22;;
4486;SDS011;2256;48.740;9.106;2023-03-26T01:47:57;8.00;;;1.70;;
4486;SDS011;2256;48.740;9.106;2023-03-26T01:50:24;5.03;;;1.88;;
4486;SDS011;2256;48.740;9.106;2023-03-26T01:52:51;11.52;;;1.50;;
4486;SDS011;2256;48.740;9.106;2023-03-26T01:55:19;2.27;;;1.57;;
4486;SDS011;2256;48.740;9.106;2023-03-26T01:57:50;2.83;;;1.63;;
4486;SDS011;2256;48.740;9.106;2023-03-26T02:00:24;6.53;;;1.92;;
4486;SDS011;2256;48.740;9.106;2023-03-26T02:02:57;12.13;;;2.05;;
4486;SDS011;2256;48.740;9.106;2023-03-26T02:05:43;4.00;;;1.60;;
4486;SDS011;2256;48.740;9.106;2023-03-26T02:08:15;7.25;;;2.28;;
4486;SDS011;2256;48.740;9.106;2023-03-26T02:10:49;5.88;;;1.55;;
4486;SDS011;2256;48.740;9.106;2023-03-26T02:13:19;4.50;;;1.63;;
4486;SDS011;2256;48.740;9.106;2023-03-26T02:15:54;3.27;;;1.60;;
4486;SDS011;2256;48.740;9.106;2023-03-26T02:18:22;7.85;;;1.88;;
4486;SDS011;2256;48.740;9.106;2023-03-26T02:21:00;5.47;;;1.92;;
4486;SDS011;2256;48.740;9.106;2023-03-26T02:23:27;14.50;;;2.07;;
4486;SDS011;2256;48.740;9.106;2023-03-26T02:25:55;8.30;;;1.67;;
4486;SDS011;2256;48.740;9.106;2023-03-26T02:28:22;5.05;;;1.75;;
4486;SDS011;2256;48.740;9.106;2023-03-26T02:30:49;3.10;;;2.30;;
4486;SDS011;2256;48.740;9.106;2023-03-26T02:33:16;17.77;;;1.90;;
4486;SDS011;2256;48.740;9.106;2023-03-26T02:35:43;7.85;;;1.63;;
4486;SDS011;2256;48.740;9.106;2023-03-26T02:38:10;9.70;;;2.08;;
4486;SDS011;2256;48.740;9.106;2023-03-26T02:40:38;7.70;;;1.95;;
4486;SDS011;2256;48.740;9.106;2023-03-26T02:43:06;9.43;;;2.35;;
4486;SDS011;2256;48.740;9.106;2023-03-26T02:45:33;6.07;;;1.52;;
4486;SDS011;2256;48.740;9.106;2023-03-26T02:48:00;4.70;;;1.58;;
4486;SDS011;2256;48.740;9.106;2023-03-26T02:50:27;3.83;;;1.90;;
4486;SDS011;2256;48.740;9.106;2023-03-26T02:52:56;9.30;;;2.33;;
4486;SDS011;2256;48.740;9.106;2023-03-26T02:55:23;17.35;;;2.05;;
4486;SDS011;2256;48.740;9.106;2023-03-26T02:57:50;6.30;;;1.80;;
4486;SDS011;2256;48.740;9.106;2023-03-26T03:00:18;8.98;;;1.70;;
4486;SDS011;2256;48.740;9.106;2023-03-26T03:02:46;11.35;;;1.95;;
4486;SDS011;2256;48.740;9.106;2023-03-26T03:05:13;8.98;;;1.77;;
4486;SDS011;2256;48.740;9.106;2023-03-26T03:07:42;8.82;;;2.65;;
4486;SDS011;2256;48.740;9.106;2023-03-26T03:10:10;13.90;;;2.13;;
4486;SDS011;2256;48.740;9.106;2023-03-26T03:12:38;6.40;;;1.83;;
4486;SDS011;2256;48.740;9.106;2023-03-26T03:15:05;8.85;;;2.20;;
4486;SDS011;2256;48.740;9.106;2023-03-26T03:17:34;5.88;;;1.60;;
4486;SDS011;2256;48.740;9.106;2023-03-26T03:20:01;7.28;;;1.90;;
4486;SDS011;2256;48.740;9.106;2023-03-26T03:22:29;3.65;;;2.00;;
4486;SDS011;2256;48.740;9.106;2023-03-26T03:24:57;8.40;;;1.90;;
4486;SDS011;2256;48.740;9.106;2023-03-26T03:27:24;5.78;;;1.60;;
4486;SDS011;2256;48.740;9.106;2023-03-26T03:29:51;6.18;;;2.70;;
4486;SDS011;2256;48.740;9.106;2023-03-26T03:32:19;8.80;;;2.10;;
4486;SDS011;2256;48.740;9.106;2023-03-26T03:34:48;6.47;;;1.63;;
4486;SDS011;2256;48.740;9.106;2023-03-26T03:37:15;11.88;;;1.50;;
4486;SDS011;2256;48.740;9.106;2023-03-26T03:39:42;5.63;;;1.97;;
4486;SDS011;2256;48.740;9.106;2023-03-26T03:42:09;6.82;;;1.85;;
4486;SDS011;2256;48.740;9.106;2023-03-26T03:44:35;7.35;;;1.73;;
4486;SDS011;2256;48.740;9.106;2023-03-26T03:47:02;10.18;;;2.17;;
4486;SDS011;2256;48.740;9.106;2023-03-26T03:49:31;11.52;;;2.50;;
4486;SDS011;2256;48.740;9.106;2023-03-26T03:51:59;13.20;;;1.92;;
4486;SDS011;2256;48.740;9.106;2023-03-26T03:54:26;15.13;;;2.07;;
4486;SDS011;2256;48.740;9.106;2023-03-26T03:56:53;3.38;;;1.80;;
4486;SDS011;2256;48.740;9.106;2023-03-26T03:59:20;8.53;;;1.80;;
4486;SDS011;2256;48.740;9.106;2023-03-26T04:01:47;6.75;;;1.40;;
4486;SDS011;2256;48.740;9.106;2023-03-26T04:04:14;7.15;;;2.33;;
4486;SDS011;2256;48.740;9.106;2023-03-26T04:06:41;16.25;;;1.92;;
4486;SDS011;2256;48.740;9.106;2023-03-26T04:09:10;6.00;;;1.90;;
4486;SDS011;2256;48.740;9.106;2023-03-26T04:11:36;7.40;;;1.83;;
4486;SDS011;2256;48.740;9.106;2023-03-26T04:14:03;11.80;;;1.90;;
4486;SDS011;2256;48.740;9.106;2023-03-26T04:16:30;7.47;;;1.80;;
4486;SDS011;2256;48.740;9.106;2023-03-26T04:18:57;12.20;;;2.20;;
4486;SDS011;2256;48.740;9.106;2023-03-26T04:21:26;11.13;;;2.17;;
4486;SDS011;2256;48.740;9.106;2023-03-26T04:23:54;10.40;;;2.57;;
4486;SDS011;2256;48.740;9.106;2023-03-26T04:26:23;14.23;;;2.17;;
4486;SDS011;2256;48.740;9.106;2023-03-26T04:28:50;10.60;;;2.27;;
4486;SDS011;2256;48.740;9.106;2023-03-26T04:31:19;10.67;;;1.70;;
4486;SDS011;2256;48.740;9.106;2023-03-26T04:33:48;8.23;;;2.00;;
4486;SDS011;2256;48.740;9.106;2023-03-26T04:36:18;9.23;;;1.97;;
4486;SDS011;2256;48.740;9.106;2023-03-26T04:38:51;10.57;;;2.17;;
4486;SDS011;2256;48.740;9.106;2023-03-26T04:41:18;6.63;;;2.07;;
4486;SDS011;2256;48.740;9.106;2023-03-26T04:43:47;11.10;;;2.00;;
4486;SDS011;2256;48.740;9.106;2023-03-26T04:46:14;11.98;;;1.77;;
4486;SDS011;2256;48.740;9.106;2023-03-26T04:48:42;21.57;;;2.37;;
4486;SDS011;2256;48.740;9.106;2023-03-26T04:51:09;9.53;;;2.00;;
4486;SDS011;2256;48.740;9.106;2023-03-26T04:53:41;6.00;;;2.00;;
4486;SDS011;2256;48.740;9.106;2023-03-26T04:56:11;9.50;;;2.07;;
4486;SDS011;2256;48.740;9.106;2023-03-26T04:58:49;6.37;;;2.00;;
4486;SDS011;2256;48.740;9.106;2023-03-26T05:01:16;10.00;;;1.97;;
4486;SDS011;2256;48.740;9.106;2023-03-26T05:03:43;11.37;;;2.07;;
4486;SDS011;2256;48.740;9.106;2023-03-26T05:06:10;4.72;;;1.80;;
4486;SDS011;2256;48.740;9.106;2023-03-26T05:08:38;6.03;;;1.60;;
4486;SDS011;2256;48.740;9.106;2023-03-26T05:11:07;12.33;;;2.13;;
4486;SDS011;2256;48.740;9.106;2023-03-26T05:13:35;11.55;;;2.20;;
4486;SDS011;2256;48.740;9.106;2023-03-26T05:16:04;14.88;;;1.83;;
4486;SDS011;2256;48.740;9.106;2023-03-26T05:18:31;7.20;;;1.63;;
4486;SDS011;2256;48.740;9.106;2023-03-26T05:20:58;3.83;;;1.67;;
4486;SDS011;2256;48.740;9.106;2023-03-26T05:23:24;9.13;;;2.30;;
4486;SDS011;2256;48.740;9.106;2023-03-26T05:25:51;8.53;;;2.53;;
4486;SDS011;2256;48.740;9.106;2023-03-26T05:28:18;4.03;;;1.30;;
4486;SDS011;2256;48.740;9.106;2023-03-26T05:30:48;6.27;;;1.80;;
4486;SDS011;2256;48.740;9.106;2023-03-26T05:33:18;8.33;;;2.57;;
4486;SDS011;2256;48.740;9.106;2023-03-26T05:35:45;6.97;;;1.90;;
4486;SDS011;2256;48.740;9.106;2023-03-26T05:38:13;12.90;;;2.50;;
4486;SDS011;2256;48.740;9.106;2023-03-26T05:40:40;19.53;;;2.50;;
4486;SDS011;2256;48.740;9.106;2023-03-26T05:43:07;7.27;;;2.50;;
4486;SDS011;2256;48.740;9.106;2023-03-26T05:45:34;6.05;;;1.95;;
4486;SDS011;2256;48.740;9.106;2023-03-26T05:48:01;10.10;;;1.80;;
4486;SDS011;2256;48.740;9.106;2023-03-26T05:50:29;6.80;;;1.60;;
4486;SDS011;2256;48.740;9.106;2023-03-26T05:52:56;8.30;;;1.83;;
4486;SDS011;2256;48.740;9.106;2023-03-26T05:55:22;5.43;;;1.80;;
4486;SDS011;2256;48.740;9.106;2023-03-26T05:57:49;5.10;;;1.53;;
4486;SDS011;2256;48.740;9.106;2023-03-26T06:00:16;8.37;;;2.13;;
4486;SDS011;2256;48.740;9.106;2023-03-26T06:02:43;5.70;;;1.67;;
4486;SDS011;2256;48.740;9.106;2023-03-26T06:05:10;5.70;;;1.90;;
4486;SDS011;2256;48.740;9.106;2023-03-26T06:07:38;5.70;;;1.90;;
4486;SDS011;2256;48.740;9.106;2023-03-26T06:10:05;6.20;;;1.77;;
4486;SDS011;2256;48.740;9.106;2023-03-26T06:12:33;10.40;;;1.90;;
4486;SDS011;2256;48.740;9.106;2023-03-26T06:15:01;10.00;;;2.30;;
4486;SDS011;2256;48.740;9.106;2023-03-26T06:17:27;9.87;;;2.20;;
4486;SDS011;2256;48.740;9.106;2023-03-26T06:19:54;11.60;;;2.17;;
4486;SDS011;2256;48.740;9.106;2023-03-26T06:22:21;6.90;;;2.43;;
4486;SDS011;2256;48.740;9.106;2023-03-26T06:24:49;8.57;;;1.93;;
4486;SDS011;2256;48.740;9.106;2023-03-26T06:27:17;13.17;;;2.07;;
4486;SDS011;2256;48.740;9.106;2023-03-26T06:29:44;14.53;;;2.40;;
4486;SDS011;2256;48.740;9.106;2023-03-26T06:32:12;5.73;;;2.20;;
4486;SDS011;2256;48.740;9.106;2023-03-26T06:34:39;8.97;;;2.07;;
4486;SDS011;2256;48.740;9.106;2023-03-26T06:37:06;14.63;;;2.30;;
4486;SDS011;2256;48.740;9.106;2023-03-26T06:39:33;9.60;;;2.57;;
4486;SDS011;2256;48.740;9.106;2023-03-26T06:42:01;10.37;;;2.50;;
4486;SDS011;2256;48.740;9.106;2023-03-26T06:44:28;13.03;;;2.90;;
4486;SDS011;2256;48.740;9.106;2023-03-26T06:46:55;9.10;;;2.50;;
4486;SDS011;2256;48.740;9.106;2023-03-26T06:49:22;7.07;;;2.67;;
4486;SDS011;2256;48.740;9.106;2023-03-26T06:51:48;9.40;;;2.00;;
4486;SDS011;2256;48.740;9.106;2023-03-26T06:54:15;12.50;;;2.00;;
4486;SDS011;2256;48.740;9.106;2023-03-26T06:56:42;11.60;;;2.20;;
4486;SDS011;2256;48.740;9.106;2023-03-26T06:59:11;5.47;;;1.53;;
4486;SDS011;2256;48.740;9.106;2023-03-26T07:01:37;6.67;;;1.93;;
4486;SDS011;2256;48.740;9.106;2023-03-26T07:04:04;2.15;;;1.90;;
4486;SDS011;2256;48.740;9.106;2023-03-26T07:06:31;3.60;;;1.60;;
4486;SDS011;2256;48.740;9.106;2023-03-26T07:08:58;9.57;;;2.10;;
4486;SDS011;2256;48.740;9.106;2023-03-26T07:11:25;11.47;;;2.00;;
4486;SDS011;2256;48.740;9.106;2023-03-26T07:13:52;10.43;;;2.33;;
4486;SDS011;2256;48.740;9.106;2023-03-26T07:16:22;5.17;;;1.70;;
4486;SDS011;2256;48.740;9.106;2023-03-26T07:18:48;10.47;;;2.20;;
4486;SDS011;2256;48.740;9.106;2023-03-26T07:21:16;6.20;;;2.10;;
4486;SDS011;2256;48.740;9.106;2023-03-26T07:23:44;14.43;;;1.93;;
4486;SDS011;2256;48.740;9.106;2023-03-26T07:26:12;8.03;;;2.27;;
4486;SDS011;2256;48.740;9.106;2023-03-26T07:28:50;10.40;;;2.30;;
4486;SDS011;2256;48.740;9.106;2023-03-26T07:31:26;12.10;;;2.30;;
4486;SDS011;2256;48.740;9.106;2023-03-26T07:34:00;7.10;;;1.80;;
4486;SDS011;2256;48.740;9.106;2023-03-26T07:36:34;8.03;;;2.07;;
4486;SDS011;2256;48.740;9.106;2023-03-26T07:39:12;7.93;;;2.33;;
4486;SDS011;2256;48.740;9.106;2023-03-26T07:41:48;17.13;;;2.20;;
4486;SDS011;2256;48.740;9.106;2023-03-26T07:44:25;8.13;;;1.90;;
4486;SDS011;2256;48.740;9.106;2023-03-26T07:47:00;12.83;;;2.27;;
4486;SDS011;2256;48.740;9.106;2023-03-26T07:49:29;26.47;;;2.23;;
4486;SDS011;2256;48.740;9.106;2023-03-26T07:51:56;6.13;;;2.03;;
4486;SDS011;2256;48.740;9.106;2023-03-26T07:54:25;5.40;;;2.23;;
4486;SDS011;2256;48.740;9.106;2023-03-26T07:56:52;8.80;;;1.93;;
4486;SDS011;2256;48.740;9.106;2023-03-26T07:59:26;9.80;;;1.70;;
4486;SDS011;2256;48.740;9.106;2023-03-26T08:02:21;4.00;;;2.00;;
4486;SDS011;2256;48.740;9.106;2023-03-26T08:05:06;5.67;;;2.13;;
4486;SDS011;2256;48.740;9.106;2023-03-26T08:07:47;9.03;;;1.87;;
4486;SDS011;2256;48.740;9.106;2023-03-26T08:10:22;13.67;;;2.30;;
4486;SDS011;2256;48.740;9.106;2023-03-26T08:12:56;6.22;;;2.13;;
4486;SDS011;2256;48.740;9.106;2023-03-26T08:15:29;3.50;;;2.13;;
4486;SDS011;2256;48.740;9.106;2023-03-26T08:18:03;7.13;;;1.77;;
4486;SDS011;2256;48.740;9.106;2023-03-26T08:20:43;20.30;;;2.53;;
4486;SDS011;2256;48.740;9.106;2023-03-26T08:23:14;12.70;;;3.03;;
4486;SDS011;2256;48.740;9.106;2023-03-26T08:25:49;8.80;;;2.57;;
4486;SDS011;2256;48.740;9.106;2023-03-26T08:28:33;9.30;;;2.73;;
4486;SDS011;2256;48.740;9.106;2023-03-26T08:31:09;7.90;;;2.47;;
4486;SDS011;2256;48.740;9.106;2023-03-26T08:33:39;9.43;;;2.50;;
4486;SDS011;2256;48.740;9.106;2023-03-26T08:36:06;20.42;;;2.85;;
4486;SDS011;2256;48.740;9.106;2023-03-26T08:38:33;8.33;;;2.10;;
4486;SDS011;2256;48.740;9.106;2023-03-26T08:41:24;12.50;;;5.03;;
4486;SDS011;2256;48.740;9.106;2023-03-26T08:44:35;11.57;;;3.13;;
4486;SDS011;2256;48.740;9.106;2023-03-26T08:50:43;11.87;;;2.80;;
4486;SDS011;2256;48.740;9.106;2023-03-26T08:56:55;11.27;;;2.80;;
4486;SDS011;2256;48.740;9.106;2023-03-26T08:59:48;12.57;;;3.47;;
4486;SDS011;2256;48.740;9.106;2023-03-26T09:02:44;5.67;;;3.03;;
4486;SDS011;2256;48.740;9.106;2023-03-26T09:15:21;3.93;;;1.53;;
4486;SDS011;2256;48.740;9.106;2023-03-26T09:21:07;2.43;;;1.37;;
4486;SDS011;2256;48.740;9.106;2023-03-26T09:27:07;2.80;;;1.47;;
4486;SDS011;2256;48.740;9.106;2023-03-26T09:29:58;1.83;;;1.57;;
4486;SDS011;2256;48.740;9.106;2023-03-26T09:35:50;5.23;;;1.80;;
4486;SDS011;2256;48.740;9.106;2023-03-26T09:38:29;5.90;;;1.60;;
4486;SDS011;2256;48.740;9.106;2023-03-26T09:41:09;4.33;;;1.53;;
4486;SDS011;2256;48.740;9.106;2023-03-26T09:43:43;5.20;;;2.03;;
4486;SDS011;2256;48.740;9.106;2023-03-26T09:46:35;9.83;;;1.83;;
4486;SDS011;2256;48.740;9.106;2023-03-26T09:49:14;6.30;;;1.63;;
4486;SDS011;2256;48.740;9.106;2023-03-26T09:52:15;3.23;;;1.90;;
4486;SDS011;2256;48.740;9.106;2023-03-26T09:54:59;2.40;;;1.40;;
4486;SDS011;2256;48.740;9.106;2023-03-26T09:58:03;2.77;;;1.10;;
4486;SDS011;2256;48.740;9.106;2023-03-26T10:00:42;3.37;;;1.50;;
4486;SDS011;2256;48.740;9.106;2023-03-26T10:03:15;4.63;;;1.40;;
4486;SDS011;2256;48.740;9.106;2023-03-26T10:05:52;2.97;;;1.40;;
4486;SDS011;2256;48.740;9.106;2023-03-26T10:08:33;2.30;;;1.23;;
4486;SDS011;2256;48.740;9.106;2023-03-26T10:11:13;3.37;;;1.53;;
4486;SDS011;2256;48.740;9.106;2023-03-26T10:13:56;3.23;;;1.43;;
4486;SDS011;2256;48.740;9.106;2023-03-26T10:16:30;2.83;;;1.33;;
4486;SDS011;2256;48.740;9.106;2023-03-26T10:19:13;3.23;;;1.20;;
4486;SDS011;2256;48.740;9.106;2023-03-26T10:21:57;6.30;;;2.60;;
4486;SDS011;2256;48.740;9.106;2023-03-26T10:24:33;2.60;;;1.10;;
4486;SDS011;2256;48.740;9.106;2023-03-26T10:27:12;3.70;;;1.30;;
4486;SDS011;2256;48.740;9.106;2023-03-26T10:29:59;2.47;;;1.33;;
4486;SDS011;2256;48.740;9.106;2023-03-26T10:32:42;2.10;;;1.00;;
4486;SDS011;2256;48.740;9.106;2023-03-26T10:35:21;2.30;;;1.30;;
4486;SDS011;2256;48.740;9.106;2023-03-26T10:37:56;3.40;;;0.97;;
4486;SDS011;2256;48.740;9.106;2023-03-26T10:40:33;6.80;;;1.47;;
4486;SDS011;2256;48.740;9.106;2023-03-26T10:43:19;1.67;;;1.07;;
4486;SDS011;2256;48.740;9.106;2023-03-26T10:51:53;3.70;;;1.23;;
4486;SDS011;2256;48.740;9.106;2023-03-26T10:54:25;3.70;;;1.10;;
4486;SDS011;2256;48.740;9.106;2023-03-26T10:57:04;4.50;;;1.10;;
4486;SDS011;2256;48.740;9.106;2023-03-26T10:59:36;2.80;;;1.10;;
4486;SDS011;2256;48.740;9.106;2023-03-26T11:02:10;1.87;;;1.10;;
4486;SDS011;2256;48.740;9.106;2023-03-26T11:04:54;3.13;;;1.10;;
4486;SDS011;2256;48.740;9.106;2023-03-26T11:07:36;1.53;;;1.00;;
4486;SDS011;2256;48.740;9.106;2023-03-26T11:10:10;1.30;;;1.10;;
4486;SDS011;2256;48.740;9.106;2023-03-26T11:12:42;1.33;;;1.20;;
4486;SDS011;2256;48.740;9.106;2023-03-26T11:15:14;1.13;;;0.90;;
4486;SDS011;2256;48.740;9.106;2023-03-26T11:17:49;3.57;;;1.10;;
4486;SDS011;2256;48.740;9.106;2023-03-26T11:20:26;1.87;;;0.93;;
4486;SDS011;2256;48.740;9.106;2023-03-26T11:23:04;1.47;;;1.20;;
4486;SDS011;2256;48.740;9.106;2023-03-26T11:25:47;2.00;;;1.27;;
4486;SDS011;2256;48.740;9.106;2023-03-26T11:28:36;4.90;;;1.30;;
4486;SDS011;2256;48.740;9.106;2023-03-26T11:31:22;1.00;;;0.90;;
4486;SDS011;2256;48.740;9.106;2023-03-26T11:33:59;1.63;;;1.20;;
4486;SDS011;2256;48.740;9.106;2023-03-26T11:36:30;3.70;;;1.20;;
4486;SDS011;2256;48.740;9.106;2023-03-26T11:39:02;2.10;;;1.10;;
4486;SDS011;2256;48.740;9.106;2023-03-26T11:41:33;1.57;;;1.13;;
4486;SDS011;2256;48.740;9.106;2023-03-26T11:44:00;2.37;;;1.00;;
4486;SDS011;2256;48.740;9.106;2023-03-26T11:46:31;3.90;;;1.20;;
4486;SDS011;2256;48.740;9.106;2023-03-26T11:49:04;4.30;;;1.23;;
4486;SDS011;2256;48.740;9.106;2023-03-26T11:51:36;6.93;;;1.67;;
4486;SDS011;2256;48.740;9.106;2023-03-26T11:54:05;2.37;;;1.10;;
4486;SDS011;2256;48.740;9.106;2023-03-26T11:56:36;1.53;;;1.13;;
4486;SDS011;2256;48.740;9.106;2023-03-26T11:59:09;2.70;;;1.17;;
4486;SDS011;2256;48.740;9.106;2023-03-26T12:01:42;3.30;;;1.20;;
4486;SDS011;2256;48.740;9.106;2023-03-26T12:04:16;5.63;;;1.40;;
4486;SDS011;2256;48.740;9.106;2023-03-26T12:06:51;1.47;;;1.10;;
4486;SDS011;2256;48.740;9.106;2023-03-26T12:09:22;2.60;;;1.33;;
4486;SDS011;2256;48.740;9.106;2023-03-26T12:11:51;2.40;;;1.10;;
4486;SDS011;2256;48.740;9.106;2023-03-26T12:14:22;2.20;;;1.20;;
4486;SDS011;2256;48.740;9.106;2023-03-26T12:16:55;9.93;;;1.20;;
4486;SDS011;2256;48.740;9.106;2023-03-26T12:19:25;3.97;;;1.00;;
4486;SDS011;2256;48.740;9.106;2023-03-26T12:21:59;3.07;;;0.97;;
4486;SDS011;2256;48.740;9.106;2023-03-26T12:24:27;1.80;;;1.10;;
4486;SDS011;2256;48.740;9.106;2023-03-26T12:26:55;2.40;;;1.20;;
4486;SDS011;2256;48.740;9.106;2023-03-26T12:29:26;2.43;;;1.20;;
4486;SDS011;2256;48.740;9.106;2023-03-26T12:31:56;4.87;;;1.20;;
4486;SDS011;2256;48.740;9.106;2023-03-26T12:34:31;5.03;;;1.20;;
4486;SDS011;2256;48.740;9.106;2023-03-26T12:37:00;3.97;;;0.93;;
4486;SDS011;2256;48.740;9.106;2023-03-26T12:39:29;3.73;;;1.00;;
4486;SDS011;2256;48.740;9.106;2023-03-26T12:41:59;14.80;;;1.30;;
4486;SDS011;2256;48.740;9.106;2023-03-26T12:44:27;3.03;;;1.60;;
4486;SDS011;2256;48.740;9.106;2023-03-26T12:47:06;5.87;;;1.50;;
4486;SDS011;2256;48.740;9.106;2023-03-26T12:49:43;4.40;;;1.17;;
4486;SDS011;2256;48.740;9.106;2023-03-26T12:55:06;1.97;;;1.20;;
4486;SDS011;2256;48.740;9.106;2023-03-26T12:57:46;2.17;;;1.20;;
4486;SDS011;2256;48.740;9.106;2023-03-26T13:00:24;1.43;;;1.20;;
4486;SDS011;2256;48.740;9.106;2023-03-26T13:06:01;1.27;;;1.10;;
4486;SDS011;2256;48.740;9.106;2023-03-26T13:11:43;1.90;;;1.07;;
4486;SDS011;2256;48.740;9.106;2023-03-26T13:14:20;2.70;;;1.40;;
4486;SDS011;2256;48.740;9.106;2023-03-26T13:17:25;5.43;;;1.10;;
4486;SDS011;2256;48.740;9.106;2023-03-26T13:19:59;2.90;;;1.40;;
4486;SDS011;2256;48.740;9.106;2023-03-26T13:22:32;2.87;;;1.30;;
4486;SDS011;2256;48.740;9.106;2023-03-26T13:25:13;4.00;;;1.50;;
4486;SDS011;2256;48.740;9.106;2023-03-26T13:27:48;1.23;;;1.03;;
4486;SDS011;2256;48.740;9.106;2023-03-26T13:30:22;1.97;;;1.30;;
4486;SDS011;2256;48.740;9.106;2023-03-26T13:33:03;3.57;;;1.30;;
4486;SDS011;2256;48.740;9.106;2023-03-26T13:35:47;1.63;;;1.00;;
4486;SDS011;2256;48.740;9.106;2023-03-26T13:38:22;1.87;;;1.13;;
4486;SDS011;2256;48.740;9.106;2023-03-26T13:40:59;2.00;;;1.00;;
4486;SDS011;2256;48.740;9.106;2023-03-26T13:43:37;3.37;;;1.10;;
4486;SDS011;2256;48.740;9.106;2023-03-26T13:46:14;5.03;;;1.20;;
4486;SDS011;2256;48.740;9.106;2023-03-26T13:48:48;5.30;;;1.10;;
4486;SDS011;2256;48.740;9.106;2023-03-26T13:51:21;5.77;;;1.40;;
4486;SDS011;2256;48.740;9.106;2023-03-26T13:53:53;1.30;;;1.10;;
4486;SDS011;2256;48.740;9.106;2023-03-26T13:56:25;2.10;;;1.07;;
4486;SDS011;2256;48.740;9.106;2023-03-26T13:58:56;1.80;;;1.10;;
4486;SDS011;2256;48.740;9.106;2023-03-26T14:01:27;1.53;;;1.00;;
4486;SDS011;2256;48.740;9.106;2023-03-26T14:04:00;2.93;;;1.30;;
4486;SDS011;2256;48.740;9.106;2023-03-26T14:06:34;3.00;;;1.33;;
4486;SDS011;2256;48.740;9.106;2023-03-26T14:09:11;4.27;;;1.50;;
4486;SDS011;2256;48.740;9.106;2023-03-26T14:11:46;3.07;;;1.13;;
4486;SDS011;2256;48.740;9.106;2023-03-26T14:14:22;1.53;;;0.90;;
4486;SDS011;2256;48.740;9.106;2023-03-26T14:16:56;4.70;;;2.57;;
4486;SDS011;2256;48.740;9.106;2023-03-26T14:19:34;7.03;;;1.10;;
4486;SDS011;2256;48.740;9.106;2023-03-26T14:22:14;4.53;;;1.37;;
4486;SDS011;2256;48.740;9.106;2023-03-26T14:24:53;1.13;;;1.03;;
4486;SDS011;2256;48.740;9.106;2023-03-26T14:27:36;3.13;;;1.00;;
4486;SDS011;2256;48.740;9.106;2023-03-26T14:30:26;0.73;;;0.73;;
4486;SDS011;2256;48.740;9.106;2023-03-26T14:33:15;1.43;;;1.07;;
4486;SDS011;2256;48.740;9.106;2023-03-26T14:35:59;3.03;;;0.97;;
4486;SDS011;2256;48.740;9.106;2023-03-26T14:38:39;2.43;;;0.90;;
4486;SDS011;2256;48.740;9.106;2023-03-26T14:41:30;4.10;;;0.90;;
4486;SDS011;2256;48.740;9.106;2023-03-26T14:44:12;1.20;;;1.10;;
4486;SDS011;2256;48.740;9.106;2023-03-26T14:52:46;3.33;;;0.80;;
4486;SDS011;2256;48.740;9.106;2023-03-26T14:55:16;1.97;;;1.03;;
4486;SDS011;2256;48.740;9.106;2023-03-26T14:58:11;2.10;;;1.03;;
4486;SDS011;2256;48.740;9.106;2023-03-26T15:01:06;1.27;;;0.97;;
4486;SDS011;2256;48.740;9.106;2023-03-26T15:07:11;1.23;;;0.80;;
4486;SDS011;2256;48.740;9.106;2023-03-26T15:13:28;3.10;;;1.00;;
4486;SDS011;2256;48.740;9.106;2023-03-26T15:16:15;1.80;;;0.90;;
4486;SDS011;2256;48.740;9.106;2023-03-26T15:22:30;2.30;;;1.00;;
4486;SDS011;2256;48.740;9.106;2023-03-26T15:25:30;1.57;;;0.90;;
4486;SDS011;2256;48.740;9.106;2023-03-26T15:28:42;1.53;;;1.00;;
4486;SDS011;2256;48.740;9.106;2023-03-26T15:34:48;1.13;;;1.00;;
4486;SDS011;2256;48.740;9.106;2023-03-26T15:41:07;1.43;;;0.90;;
4486;SDS011;2256;48.740;9.106;2023-03-26T15:44:08;1.27;;;0.70;;
4486;SDS011;2256;48.740;9.106;2023-03-26T15:46:55;1.10;;;0.80;;
4486;SDS011;2256;48.740;9.106;2023-03-26T15:49:27;0.70;;;0.70;;
4486;SDS011;2256;48.740;9.106;2023-03-26T15:52:07;2.20;;;0.80;;
4486;SDS011;2256;48.740;9.106;2023-03-26T15:54:45;1.27;;;0.80;;
4486;SDS011;2256;48.740;9.106;2023-03-26T15:57:18;0.77;;;0.77;;
4486;SDS011;2256;48.740;9.106;2023-03-26T16:00:00;2.10;;;0.80;;
4486;SDS011;2256;48.740;9.106;2023-03-26T16:02:40;2.10;;;0.80;;
4486;SDS011;2256;48.740;9.106;2023-03-26T16:05:23;5.32;;;1.05;;
4486;SDS011;2256;48.740;9.106;2023-03-26T16:08:07;5.03;;;0.80;;
4486;SDS011;2256;48.740;9.106;2023-03-26T16:10:46;5.32;;;0.90;;
4486;SDS011;2256;48.740;9.106;2023-03-26T16:13:22;2.70;;;1.00;;
4486;SDS011;2256;48.740;9.106;2023-03-26T16:16:00;2.50;;;0.90;;
4486;SDS011;2256;48.740;9.106;2023-03-26T16:18:45;4.05;;;1.30;;
4486;SDS011;2256;48.740;9.106;2023-03-26T16:21:33;0.90;;;0.90;;
4486;SDS011;2256;48.740;9.106;2023-03-26T16:24:10;0.90;;;0.80;;
4486;SDS011;2256;48.740;9.106;2023-03-26T16:30:02;1.73;;;0.90;;
4486;SDS011;2256;48.740;9.106;2023-03-26T16:32:53;0.77;;;0.77;;
4486;SDS011;2256;48.740;9.106;2023-03-26T16:38:22;2.73;;;1.10;;
4486;SDS011;2256;48.740;9.106;2023-03-26T16:41:00;0.70;;;0.70;;
4486;SDS011;2256;48.740;9.106;2023-03-26T16:43:41;0.77;;;0.77;;
4486;SDS011;2256;48.740;9.106;2023-03-26T16:46:18;3.22;;;0.80;;
4486;SDS011;2256;48.740;9.106;2023-03-26T16:48:56;1.58;;;1.05;;
4486;SDS011;2256;48.740;9.106;2023-03-26T16:51:32;1.03;;;0.97;;
4486;SDS011;2256;48.740;9.106;2023-03-26T16:54:13;5.07;;;0.80;;
4486;SDS011;2256;48.740;9.106;2023-03-26T16:56:49;0.77;;;0.77;;
4486;SDS011;2256;48.740;9.106;2023-03-26T17:02:20;0.95;;;0.93;;
4486;SDS011;2256;48.740;9.106;2023-03-26T17:04:58;1.13;;;0.70;;